sensor_id;sensor_type;location;lat;lon;timestamp;P1;durP1;ratioP1;P2;durP2;ratioP2
18669;SDS011;9464;44.918;9.670;2023-02-26T00:01:37;42.77;;;18.23;;
18669;SDS011;9464;44.918;9.670;2023-02-26T00:04:08;50.80;;;19.37;;
18669;SDS011;9464;44.918;9.670;2023-02-26T00:06:37;52.97;;;20.50;;
18669;SDS011;9464;44.918;9.670;2023-02-26T00:09:24;43.23;;;18.67;;
18669;SDS011;9464;44.918;9.670;2023-02-26T00:11:53;35.13;;;17.13;;
18669;SDS011;9464;44.918;9.670;2023-02-26T00:14:22;35.33;;;16.10;;
18669;SDS011;9464;44.918;9.670;2023-02-26T00:16:54;33.90;;;15.80;;
18669;SDS011;9464;44.918;9.670;2023-02-26T00:19:36;37.33;;;15.90;;
18669;SDS011;9464;44.918;9.670;2023-02-26T00:22:05;30.90;;;15.50;;
18669;SDS011;9464;44.918;9.670;2023-02-26T00:24:34;38.10;;;16.17;;
18669;SDS011;9464;44.918;9.670;2023-02-26T00:27:02;33.70;;;16.73;;
18669;SDS011;9464;44.918;9.670;2023-02-26T00:29:31;44.77;;;18.57;;
18669;SDS011;9464;44.918;9.670;2023-02-26T00:31:59;35.77;;;16.73;;
18669;SDS011;9464;44.918;9.670;2023-02-26T00:34:28;31.47;;;16.17;;
18669;SDS011;9464;44.918;9.670;2023-02-26T00:37:01;32.13;;;17.57;;
18669;SDS011;9464;44.918;9.670;2023-02-26T00:39:39;32.63;;;15.60;;
18669;SDS011;9464;44.918;9.670;2023-02-26T00:42:14;35.93;;;16.13;;
18669;SDS011;9464;44.918;9.670;2023-02-26T00:44:43;32.87;;;16.10;;
18669;SDS011;9464;44.918;9.670;2023-02-26T00:47:13;38.33;;;16.60;;
18669;SDS011;9464;44.918;9.670;2023-02-26T00:49:53;32.67;;;16.73;;
18669;SDS011;9464;44.918;9.670;2023-02-26T00:52:34;30.77;;;15.93;;
18669;SDS011;9464;44.918;9.670;2023-02-26T00:55:07;35.40;;;16.03;;
18669;SDS011;9464;44.918;9.670;2023-02-26T00:57:36;33.07;;;17.60;;
18669;SDS011;9464;44.918;9.670;2023-02-26T01:00:04;28.23;;;15.87;;
18669;SDS011;9464;44.918;9.670;2023-02-26T01:02:34;31.33;;;15.37;;
18669;SDS011;9464;44.918;9.670;2023-02-26T01:05:04;25.73;;;14.30;;
18669;SDS011;9464;44.918;9.670;2023-02-26T01:07:36;33.20;;;13.70;;
18669;SDS011;9464;44.918;9.670;2023-02-26T01:10:08;31.47;;;15.50;;
18669;SDS011;9464;44.918;9.670;2023-02-26T01:12:38;28.63;;;16.03;;
18669;SDS011;9464;44.918;9.670;2023-02-26T01:15:07;37.60;;;14.87;;
18669;SDS011;9464;44.918;9.670;2023-02-26T01:17:38;34.53;;;14.73;;
18669;SDS011;9464;44.918;9.670;2023-02-26T01:20:13;29.73;;;14.90;;
18669;SDS011;9464;44.918;9.670;2023-02-26T01:22:47;28.23;;;14.13;;
18669;SDS011;9464;44.918;9.670;2023-02-26T01:25:22;30.23;;;15.00;;
18669;SDS011;9464;44.918;9.670;2023-02-26T01:27:53;32.17;;;14.97;;
18669;SDS011;9464;44.918;9.670;2023-02-26T01:30:23;36.50;;;15.67;;
18669;SDS011;9464;44.918;9.670;2023-02-26T01:32:53;29.97;;;15.20;;
18669;SDS011;9464;44.918;9.670;2023-02-26T01:35:30;30.57;;;14.13;;
18669;SDS011;9464;44.918;9.670;2023-02-26T01:38:10;29.73;;;14.30;;
18669;SDS011;9464;44.918;9.670;2023-02-26T01:41:11;31.83;;;15.67;;
18669;SDS011;9464;44.918;9.670;2023-02-26T01:43:50;32.60;;;14.27;;
18669;SDS011;9464;44.918;9.670;2023-02-26T01:46:25;27.53;;;14.60;;
18669;SDS011;9464;44.918;9.670;2023-02-26T01:49:01;28.17;;;13.97;;
18669;SDS011;9464;44.918;9.670;2023-02-26T01:51:45;29.37;;;14.47;;
18669;SDS011;9464;44.918;9.670;2023-02-26T01:54:17;27.33;;;13.83;;
18669;SDS011;9464;44.918;9.670;2023-02-26T01:56:48;29.07;;;14.17;;
18669;SDS011;9464;44.918;9.670;2023-02-26T01:59:19;27.10;;;13.50;;
18669;SDS011;9464;44.918;9.670;2023-02-26T02:01:51;30.20;;;13.50;;
18669;SDS011;9464;44.918;9.670;2023-02-26T02:04:20;25.67;;;12.87;;
18669;SDS011;9464;44.918;9.670;2023-02-26T02:06:50;31.27;;;14.63;;
18669;SDS011;9464;44.918;9.670;2023-02-26T02:09:21;25.47;;;12.90;;
18669;SDS011;9464;44.918;9.670;2023-02-26T02:11:53;32.83;;;14.17;;
18669;SDS011;9464;44.918;9.670;2023-02-26T02:14:38;23.47;;;13.90;;
18669;SDS011;9464;44.918;9.670;2023-02-26T02:17:15;26.93;;;13.23;;
18669;SDS011;9464;44.918;9.670;2023-02-26T02:19:54;28.27;;;13.87;;
18669;SDS011;9464;44.918;9.670;2023-02-26T02:22:55;40.13;;;17.07;;
18669;SDS011;9464;44.918;9.670;2023-02-26T02:25:43;31.10;;;14.73;;
18669;SDS011;9464;44.918;9.670;2023-02-26T02:28:39;29.33;;;13.73;;
18669;SDS011;9464;44.918;9.670;2023-02-26T02:31:19;24.07;;;11.30;;
18669;SDS011;9464;44.918;9.670;2023-02-26T02:33:56;26.77;;;14.47;;
18669;SDS011;9464;44.918;9.670;2023-02-26T02:36:27;26.73;;;13.87;;
18669;SDS011;9464;44.918;9.670;2023-02-26T02:39:01;23.30;;;13.03;;
18669;SDS011;9464;44.918;9.670;2023-02-26T02:41:34;28.83;;;13.90;;
18669;SDS011;9464;44.918;9.670;2023-02-26T02:44:07;21.90;;;12.00;;
18669;SDS011;9464;44.918;9.670;2023-02-26T02:46:41;26.27;;;13.97;;
18669;SDS011;9464;44.918;9.670;2023-02-26T02:49:12;31.37;;;12.97;;
18669;SDS011;9464;44.918;9.670;2023-02-26T02:51:46;26.97;;;14.53;;
18669;SDS011;9464;44.918;9.670;2023-02-26T02:54:19;34.27;;;16.87;;
18669;SDS011;9464;44.918;9.670;2023-02-26T02:56:52;33.20;;;17.27;;
18669;SDS011;9464;44.918;9.670;2023-02-26T02:59:24;37.27;;;15.90;;
18669;SDS011;9464;44.918;9.670;2023-02-26T03:02:00;30.47;;;15.67;;
18669;SDS011;9464;44.918;9.670;2023-02-26T03:04:33;31.83;;;14.03;;
18669;SDS011;9464;44.918;9.670;2023-02-26T03:07:01;28.00;;;14.20;;
18669;SDS011;9464;44.918;9.670;2023-02-26T03:09:30;29.10;;;13.93;;
18669;SDS011;9464;44.918;9.670;2023-02-26T03:11:58;28.00;;;13.63;;
18669;SDS011;9464;44.918;9.670;2023-02-26T03:14:27;28.10;;;12.93;;
18669;SDS011;9464;44.918;9.670;2023-02-26T03:17:05;32.97;;;14.40;;
18669;SDS011;9464;44.918;9.670;2023-02-26T03:19:44;29.80;;;14.00;;
18669;SDS011;9464;44.918;9.670;2023-02-26T03:22:20;33.00;;;14.90;;
18669;SDS011;9464;44.918;9.670;2023-02-26T03:24:56;28.07;;;15.10;;
18669;SDS011;9464;44.918;9.670;2023-02-26T03:27:30;33.40;;;15.43;;
18669;SDS011;9464;44.918;9.670;2023-02-26T03:30:02;28.63;;;16.13;;
18669;SDS011;9464;44.918;9.670;2023-02-26T03:32:37;28.37;;;14.80;;
18669;SDS011;9464;44.918;9.670;2023-02-26T03:35:16;27.60;;;14.47;;
18669;SDS011;9464;44.918;9.670;2023-02-26T03:37:49;31.87;;;15.37;;
18669;SDS011;9464;44.918;9.670;2023-02-26T03:40:22;30.33;;;15.53;;
18669;SDS011;9464;44.918;9.670;2023-02-26T03:42:56;35.80;;;17.47;;
18669;SDS011;9464;44.918;9.670;2023-02-26T03:45:29;36.07;;;17.70;;
18669;SDS011;9464;44.918;9.670;2023-02-26T03:48:03;33.13;;;14.90;;
18669;SDS011;9464;44.918;9.670;2023-02-26T03:50:35;32.70;;;14.40;;
18669;SDS011;9464;44.918;9.670;2023-02-26T03:53:09;32.30;;;14.77;;
18669;SDS011;9464;44.918;9.670;2023-02-26T03:55:41;29.93;;;13.87;;
18669;SDS011;9464;44.918;9.670;2023-02-26T03:58:18;22.77;;;13.57;;
18669;SDS011;9464;44.918;9.670;2023-02-26T04:00:46;30.80;;;14.33;;
18669;SDS011;9464;44.918;9.670;2023-02-26T04:03:23;26.13;;;13.87;;
18669;SDS011;9464;44.918;9.670;2023-02-26T04:05:55;31.90;;;13.93;;
18669;SDS011;9464;44.918;9.670;2023-02-26T04:08:24;28.77;;;14.37;;
18669;SDS011;9464;44.918;9.670;2023-02-26T04:10:53;32.23;;;14.13;;
18669;SDS011;9464;44.918;9.670;2023-02-26T04:13:24;24.43;;;13.10;;
18669;SDS011;9464;44.918;9.670;2023-02-26T04:15:53;28.83;;;13.53;;
18669;SDS011;9464;44.918;9.670;2023-02-26T04:18:23;27.47;;;15.77;;
18669;SDS011;9464;44.918;9.670;2023-02-26T04:20:51;26.77;;;14.23;;
18669;SDS011;9464;44.918;9.670;2023-02-26T04:23:19;41.13;;;17.97;;
18669;SDS011;9464;44.918;9.670;2023-02-26T04:25:47;33.53;;;17.97;;
18669;SDS011;9464;44.918;9.670;2023-02-26T04:28:16;43.53;;;19.57;;
18669;SDS011;9464;44.918;9.670;2023-02-26T04:30:44;51.43;;;23.40;;
18669;SDS011;9464;44.918;9.670;2023-02-26T04:33:13;58.13;;;27.27;;
18669;SDS011;9464;44.918;9.670;2023-02-26T04:35:43;72.40;;;30.43;;
18669;SDS011;9464;44.918;9.670;2023-02-26T04:38:11;69.87;;;31.17;;
18669;SDS011;9464;44.918;9.670;2023-02-26T04:40:39;21.43;;;8.57;;
18669;SDS011;9464;44.918;9.670;2023-02-26T04:43:07;10.77;;;4.23;;
18669;SDS011;9464;44.918;9.670;2023-02-26T04:45:35;6.57;;;2.63;;
18669;SDS011;9464;44.918;9.670;2023-02-26T04:48:04;5.27;;;2.63;;
18669;SDS011;9464;44.918;9.670;2023-02-26T04:50:32;6.63;;;2.37;;
18669;SDS011;9464;44.918;9.670;2023-02-26T04:53:02;3.80;;;1.90;;
18669;SDS011;9464;44.918;9.670;2023-02-26T04:55:30;3.43;;;1.70;;
18669;SDS011;9464;44.918;9.670;2023-02-26T04:57:58;3.03;;;1.67;;
18669;SDS011;9464;44.918;9.670;2023-02-26T05:00:26;5.63;;;1.50;;
18669;SDS011;9464;44.918;9.670;2023-02-26T05:02:55;4.87;;;1.70;;
18669;SDS011;9464;44.918;9.670;2023-02-26T05:05:23;3.63;;;1.83;;
18669;SDS011;9464;44.918;9.670;2023-02-26T05:07:51;4.90;;;2.00;;
18669;SDS011;9464;44.918;9.670;2023-02-26T05:10:26;2.87;;;1.50;;
18669;SDS011;9464;44.918;9.670;2023-02-26T05:12:54;4.20;;;1.57;;
18669;SDS011;9464;44.918;9.670;2023-02-26T05:15:22;4.63;;;1.63;;
18669;SDS011;9464;44.918;9.670;2023-02-26T05:17:50;3.90;;;2.00;;
18669;SDS011;9464;44.918;9.670;2023-02-26T05:20:19;5.90;;;1.87;;
18669;SDS011;9464;44.918;9.670;2023-02-26T05:22:47;4.97;;;2.00;;
18669;SDS011;9464;44.918;9.670;2023-02-26T05:25:16;4.43;;;2.23;;
18669;SDS011;9464;44.918;9.670;2023-02-26T05:27:45;4.60;;;1.70;;
18669;SDS011;9464;44.918;9.670;2023-02-26T05:30:14;9.07;;;2.00;;
18669;SDS011;9464;44.918;9.670;2023-02-26T05:32:43;4.03;;;1.63;;
18669;SDS011;9464;44.918;9.670;2023-02-26T05:35:11;4.20;;;2.20;;
18669;SDS011;9464;44.918;9.670;2023-02-26T05:37:40;4.03;;;1.70;;
18669;SDS011;9464;44.918;9.670;2023-02-26T05:40:09;2.77;;;1.57;;
18669;SDS011;9464;44.918;9.670;2023-02-26T05:42:38;8.07;;;1.73;;
18669;SDS011;9464;44.918;9.670;2023-02-26T05:45:08;6.80;;;1.60;;
18669;SDS011;9464;44.918;9.670;2023-02-26T05:47:37;2.77;;;1.43;;
18669;SDS011;9464;44.918;9.670;2023-02-26T05:50:05;2.73;;;1.80;;
18669;SDS011;9464;44.918;9.670;2023-02-26T05:52:34;3.80;;;1.83;;
18669;SDS011;9464;44.918;9.670;2023-02-26T05:55:03;4.20;;;1.60;;
18669;SDS011;9464;44.918;9.670;2023-02-26T05:57:32;4.40;;;1.50;;
18669;SDS011;9464;44.918;9.670;2023-02-26T06:00:00;2.40;;;1.23;;
18669;SDS011;9464;44.918;9.670;2023-02-26T06:02:30;3.93;;;1.20;;
18669;SDS011;9464;44.918;9.670;2023-02-26T06:04:58;2.23;;;1.27;;
18669;SDS011;9464;44.918;9.670;2023-02-26T06:07:27;2.40;;;1.20;;
18669;SDS011;9464;44.918;9.670;2023-02-26T06:09:55;2.83;;;1.00;;
18669;SDS011;9464;44.918;9.670;2023-02-26T06:12:23;6.47;;;1.40;;
18669;SDS011;9464;44.918;9.670;2023-02-26T06:14:52;4.23;;;1.10;;
18669;SDS011;9464;44.918;9.670;2023-02-26T06:17:20;3.17;;;1.13;;
18669;SDS011;9464;44.918;9.670;2023-02-26T06:19:49;3.07;;;1.10;;
18669;SDS011;9464;44.918;9.670;2023-02-26T06:22:18;2.53;;;1.00;;
18669;SDS011;9464;44.918;9.670;2023-02-26T06:24:46;4.67;;;0.93;;
18669;SDS011;9464;44.918;9.670;2023-02-26T06:27:15;3.33;;;0.90;;
18669;SDS011;9464;44.918;9.670;2023-02-26T06:29:44;0.70;;;0.70;;
18669;SDS011;9464;44.918;9.670;2023-02-26T06:32:12;3.20;;;1.30;;
18669;SDS011;9464;44.918;9.670;2023-02-26T06:34:40;1.67;;;0.83;;
18669;SDS011;9464;44.918;9.670;2023-02-26T06:37:10;2.03;;;0.87;;
18669;SDS011;9464;44.918;9.670;2023-02-26T06:39:38;1.67;;;0.50;;
18669;SDS011;9464;44.918;9.670;2023-02-26T06:42:07;2.60;;;1.03;;
18669;SDS011;9464;44.918;9.670;2023-02-26T06:44:35;1.30;;;0.73;;
18669;SDS011;9464;44.918;9.670;2023-02-26T06:47:03;1.77;;;0.80;;
18669;SDS011;9464;44.918;9.670;2023-02-26T06:49:31;1.80;;;0.97;;
18669;SDS011;9464;44.918;9.670;2023-02-26T06:52:00;3.60;;;1.00;;
18669;SDS011;9464;44.918;9.670;2023-02-26T06:54:29;1.70;;;0.87;;
18669;SDS011;9464;44.918;9.670;2023-02-26T06:56:58;3.00;;;1.10;;
18669;SDS011;9464;44.918;9.670;2023-02-26T06:59:27;3.23;;;0.80;;
18669;SDS011;9464;44.918;9.670;2023-02-26T07:01:56;2.73;;;1.20;;
18669;SDS011;9464;44.918;9.670;2023-02-26T07:04:24;2.10;;;0.90;;
18669;SDS011;9464;44.918;9.670;2023-02-26T07:06:52;2.90;;;1.07;;
18669;SDS011;9464;44.918;9.670;2023-02-26T07:09:20;0.90;;;0.60;;
18669;SDS011;9464;44.918;9.670;2023-02-26T07:11:50;4.73;;;1.20;;
18669;SDS011;9464;44.918;9.670;2023-02-26T07:14:18;1.47;;;0.80;;
18669;SDS011;9464;44.918;9.670;2023-02-26T07:16:46;0.87;;;0.60;;
18669;SDS011;9464;44.918;9.670;2023-02-26T07:19:15;1.53;;;0.77;;
18669;SDS011;9464;44.918;9.670;2023-02-26T07:21:43;2.13;;;1.00;;
18669;SDS011;9464;44.918;9.670;2023-02-26T07:24:12;2.17;;;1.00;;
18669;SDS011;9464;44.918;9.670;2023-02-26T07:26:41;0.97;;;0.87;;
18669;SDS011;9464;44.918;9.670;2023-02-26T07:29:11;1.07;;;0.97;;
18669;SDS011;9464;44.918;9.670;2023-02-26T07:31:39;2.30;;;0.90;;
18669;SDS011;9464;44.918;9.670;2023-02-26T07:34:08;0.90;;;0.80;;
18669;SDS011;9464;44.918;9.670;2023-02-26T07:36:36;2.87;;;0.83;;
18669;SDS011;9464;44.918;9.670;2023-02-26T07:39:04;2.27;;;0.90;;
18669;SDS011;9464;44.918;9.670;2023-02-26T07:41:33;2.20;;;0.90;;
18669;SDS011;9464;44.918;9.670;2023-02-26T07:44:01;1.20;;;1.10;;
18669;SDS011;9464;44.918;9.670;2023-02-26T07:46:31;1.00;;;0.90;;
18669;SDS011;9464;44.918;9.670;2023-02-26T07:48:59;2.03;;;0.77;;
18669;SDS011;9464;44.918;9.670;2023-02-26T07:51:27;2.10;;;1.00;;
18669;SDS011;9464;44.918;9.670;2023-02-26T07:53:57;1.33;;;0.80;;
18669;SDS011;9464;44.918;9.670;2023-02-26T07:56:26;2.23;;;0.97;;
18669;SDS011;9464;44.918;9.670;2023-02-26T07:58:54;1.20;;;0.80;;
18669;SDS011;9464;44.918;9.670;2023-02-26T08:01:22;3.97;;;0.63;;
18669;SDS011;9464;44.918;9.670;2023-02-26T08:03:52;2.10;;;0.50;;
18669;SDS011;9464;44.918;9.670;2023-02-26T08:06:20;1.40;;;0.70;;
18669;SDS011;9464;44.918;9.670;2023-02-26T08:08:49;1.40;;;0.83;;
18669;SDS011;9464;44.918;9.670;2023-02-26T08:11:17;1.60;;;1.00;;
18669;SDS011;9464;44.918;9.670;2023-02-26T08:13:45;9.43;;;6.20;;
18669;SDS011;9464;44.918;9.670;2023-02-26T08:16:14;11.77;;;6.60;;
18669;SDS011;9464;44.918;9.670;2023-02-26T08:18:42;13.60;;;7.70;;
18669;SDS011;9464;44.918;9.670;2023-02-26T08:21:11;10.87;;;4.90;;
18669;SDS011;9464;44.918;9.670;2023-02-26T08:23:40;1.53;;;1.40;;
18669;SDS011;9464;44.918;9.670;2023-02-26T08:26:10;3.10;;;1.43;;
18669;SDS011;9464;44.918;9.670;2023-02-26T08:28:38;2.70;;;1.87;;
18669;SDS011;9464;44.918;9.670;2023-02-26T08:31:07;2.73;;;1.80;;
18669;SDS011;9464;44.918;9.670;2023-02-26T08:33:35;2.77;;;1.20;;
18669;SDS011;9464;44.918;9.670;2023-02-26T08:36:04;2.50;;;1.83;;
18669;SDS011;9464;44.918;9.670;2023-02-26T08:38:34;1.93;;;1.50;;
18669;SDS011;9464;44.918;9.670;2023-02-26T08:41:02;1.10;;;1.00;;
18669;SDS011;9464;44.918;9.670;2023-02-26T08:43:31;2.43;;;1.70;;
18669;SDS011;9464;44.918;9.670;2023-02-26T08:45:59;3.40;;;1.90;;
18669;SDS011;9464;44.918;9.670;2023-02-26T08:48:27;0.90;;;0.90;;
18669;SDS011;9464;44.918;9.670;2023-02-26T08:50:55;2.37;;;1.50;;
18669;SDS011;9464;44.918;9.670;2023-02-26T08:53:24;2.60;;;1.00;;
18669;SDS011;9464;44.918;9.670;2023-02-26T08:55:53;10.17;;;5.90;;
18669;SDS011;9464;44.918;9.670;2023-02-26T08:58:21;3.13;;;1.83;;
18669;SDS011;9464;44.918;9.670;2023-02-26T09:00:50;1.17;;;1.00;;
18669;SDS011;9464;44.918;9.670;2023-02-26T09:03:18;1.60;;;1.50;;
18669;SDS011;9464;44.918;9.670;2023-02-26T09:05:46;2.07;;;1.20;;
18669;SDS011;9464;44.918;9.670;2023-02-26T09:08:14;1.90;;;1.13;;
18669;SDS011;9464;44.918;9.670;2023-02-26T09:10:43;1.47;;;1.03;;
18669;SDS011;9464;44.918;9.670;2023-02-26T09:13:12;4.07;;;2.10;;
18669;SDS011;9464;44.918;9.670;2023-02-26T09:15:40;1.80;;;1.30;;
18669;SDS011;9464;44.918;9.670;2023-02-26T09:18:09;2.77;;;1.60;;
18669;SDS011;9464;44.918;9.670;2023-02-26T09:20:40;2.83;;;1.50;;
18669;SDS011;9464;44.918;9.670;2023-02-26T09:23:09;3.07;;;2.10;;
18669;SDS011;9464;44.918;9.670;2023-02-26T09:25:38;2.60;;;2.00;;
18669;SDS011;9464;44.918;9.670;2023-02-26T09:28:07;5.33;;;2.20;;
18669;SDS011;9464;44.918;9.670;2023-02-26T09:30:36;2.27;;;1.43;;
18669;SDS011;9464;44.918;9.670;2023-02-26T09:33:04;1.77;;;1.13;;
18669;SDS011;9464;44.918;9.670;2023-02-26T09:35:34;1.20;;;1.10;;
18669;SDS011;9464;44.918;9.670;2023-02-26T09:38:03;2.50;;;1.67;;
18669;SDS011;9464;44.918;9.670;2023-02-26T09:40:35;1.83;;;1.40;;
18669;SDS011;9464;44.918;9.670;2023-02-26T09:43:16;2.07;;;1.73;;
18669;SDS011;9464;44.918;9.670;2023-02-26T09:46:03;3.50;;;1.90;;
18669;SDS011;9464;44.918;9.670;2023-02-26T09:48:37;1.40;;;1.23;;
18669;SDS011;9464;44.918;9.670;2023-02-26T09:51:08;1.87;;;1.17;;
18669;SDS011;9464;44.918;9.670;2023-02-26T09:53:40;2.83;;;1.60;;
18669;SDS011;9464;44.918;9.670;2023-02-26T09:56:11;3.73;;;2.30;;
18669;SDS011;9464;44.918;9.670;2023-02-26T09:58:42;5.60;;;1.50;;
18669;SDS011;9464;44.918;9.670;2023-02-26T10:01:15;3.23;;;2.93;;
18669;SDS011;9464;44.918;9.670;2023-02-26T10:03:53;2.00;;;1.80;;
18669;SDS011;9464;44.918;9.670;2023-02-26T10:06:29;1.23;;;1.17;;
18669;SDS011;9464;44.918;9.670;2023-02-26T10:09:04;1.17;;;1.10;;
18669;SDS011;9464;44.918;9.670;2023-02-26T10:11:52;1.00;;;1.00;;
18669;SDS011;9464;44.918;9.670;2023-02-26T10:14:26;0.70;;;0.70;;
18669;SDS011;9464;44.918;9.670;2023-02-26T10:17:00;1.30;;;1.20;;
18669;SDS011;9464;44.918;9.670;2023-02-26T10:19:35;0.87;;;0.87;;
18669;SDS011;9464;44.918;9.670;2023-02-26T10:22:12;0.73;;;0.73;;
18669;SDS011;9464;44.918;9.670;2023-02-26T10:24:47;1.00;;;1.00;;
18669;SDS011;9464;44.918;9.670;2023-02-26T10:27:19;1.10;;;1.03;;
18669;SDS011;9464;44.918;9.670;2023-02-26T10:29:56;1.00;;;0.80;;
18669;SDS011;9464;44.918;9.670;2023-02-26T10:32:31;1.53;;;1.30;;
18669;SDS011;9464;44.918;9.670;2023-02-26T10:35:03;1.03;;;1.00;;
18669;SDS011;9464;44.918;9.670;2023-02-26T10:37:37;2.20;;;2.10;;
18669;SDS011;9464;44.918;9.670;2023-02-26T10:40:15;1.33;;;1.23;;
18669;SDS011;9464;44.918;9.670;2023-02-26T10:42:46;2.43;;;1.47;;
18669;SDS011;9464;44.918;9.670;2023-02-26T10:45:25;10.80;;;7.17;;
18669;SDS011;9464;44.918;9.670;2023-02-26T10:48:08;3.40;;;2.40;;
18669;SDS011;9464;44.918;9.670;2023-02-26T10:50:46;3.00;;;1.90;;
18669;SDS011;9464;44.918;9.670;2023-02-26T10:53:16;1.87;;;1.77;;
18669;SDS011;9464;44.918;9.670;2023-02-26T10:55:45;1.67;;;1.20;;
18669;SDS011;9464;44.918;9.670;2023-02-26T10:58:22;1.30;;;1.20;;
18669;SDS011;9464;44.918;9.670;2023-02-26T11:00:52;0.67;;;0.67;;
18669;SDS011;9464;44.918;9.670;2023-02-26T11:03:25;1.43;;;1.23;;
18669;SDS011;9464;44.918;9.670;2023-02-26T11:05:58;1.70;;;1.07;;
18669;SDS011;9464;44.918;9.670;2023-02-26T11:08:29;1.10;;;1.00;;
18669;SDS011;9464;44.918;9.670;2023-02-26T11:11:00;4.33;;;1.13;;
18669;SDS011;9464;44.918;9.670;2023-02-26T11:13:30;1.17;;;1.13;;
18669;SDS011;9464;44.918;9.670;2023-02-26T11:16:01;1.00;;;1.00;;
18669;SDS011;9464;44.918;9.670;2023-02-26T11:18:34;0.87;;;0.87;;
18669;SDS011;9464;44.918;9.670;2023-02-26T11:21:06;3.10;;;1.60;;
18669;SDS011;9464;44.918;9.670;2023-02-26T11:23:42;2.57;;;1.23;;
18669;SDS011;9464;44.918;9.670;2023-02-26T11:26:13;2.43;;;1.70;;
18669;SDS011;9464;44.918;9.670;2023-02-26T11:28:45;1.60;;;1.00;;
18669;SDS011;9464;44.918;9.670;2023-02-26T11:31:15;2.20;;;1.73;;
18669;SDS011;9464;44.918;9.670;2023-02-26T11:33:49;1.60;;;1.20;;
18669;SDS011;9464;44.918;9.670;2023-02-26T11:36:21;2.00;;;1.20;;
18669;SDS011;9464;44.918;9.670;2023-02-26T11:38:54;3.60;;;1.50;;
18669;SDS011;9464;44.918;9.670;2023-02-26T11:41:24;1.70;;;1.10;;
18669;SDS011;9464;44.918;9.670;2023-02-26T11:43:57;5.30;;;2.13;;
18669;SDS011;9464;44.918;9.670;2023-02-26T11:46:27;30.70;;;18.23;;
18669;SDS011;9464;44.918;9.670;2023-02-26T11:48:58;2.37;;;2.17;;
18669;SDS011;9464;44.918;9.670;2023-02-26T11:51:28;1.20;;;1.10;;
18669;SDS011;9464;44.918;9.670;2023-02-26T11:53:57;6.37;;;2.57;;
18669;SDS011;9464;44.918;9.670;2023-02-26T11:56:29;1.30;;;1.20;;
18669;SDS011;9464;44.918;9.670;2023-02-26T11:59:01;1.30;;;1.20;;
18669;SDS011;9464;44.918;9.670;2023-02-26T12:01:34;1.10;;;1.00;;
18669;SDS011;9464;44.918;9.670;2023-02-26T12:04:04;1.50;;;1.40;;
18669;SDS011;9464;44.918;9.670;2023-02-26T12:06:36;1.90;;;1.70;;
18669;SDS011;9464;44.918;9.670;2023-02-26T12:09:05;1.43;;;1.33;;
18669;SDS011;9464;44.918;9.670;2023-02-26T12:11:42;1.97;;;1.30;;
18669;SDS011;9464;44.918;9.670;2023-02-26T12:14:38;2.00;;;1.80;;
18669;SDS011;9464;44.918;9.670;2023-02-26T12:17:19;1.20;;;0.97;;
18669;SDS011;9464;44.918;9.670;2023-02-26T12:20:02;2.73;;;1.40;;
18669;SDS011;9464;44.918;9.670;2023-02-26T12:22:48;2.57;;;1.30;;
18669;SDS011;9464;44.918;9.670;2023-02-26T12:25:22;1.20;;;1.03;;
18669;SDS011;9464;44.918;9.670;2023-02-26T12:28:12;0.83;;;0.83;;
18669;SDS011;9464;44.918;9.670;2023-02-26T12:30:56;39.43;;;21.87;;
18669;SDS011;9464;44.918;9.670;2023-02-26T12:33:43;2.27;;;1.50;;
18669;SDS011;9464;44.918;9.670;2023-02-26T12:36:24;1.70;;;0.97;;
18669;SDS011;9464;44.918;9.670;2023-02-26T12:39:18;1.63;;;0.90;;
18669;SDS011;9464;44.918;9.670;2023-02-26T12:42:08;1.10;;;1.00;;
18669;SDS011;9464;44.918;9.670;2023-02-26T12:48:04;0.80;;;0.80;;
18669;SDS011;9464;44.918;9.670;2023-02-26T12:50:52;1.10;;;1.00;;
18669;SDS011;9464;44.918;9.670;2023-02-26T12:53:42;2.60;;;0.90;;
18669;SDS011;9464;44.918;9.670;2023-02-26T12:59:18;4.07;;;2.27;;
18669;SDS011;9464;44.918;9.670;2023-02-26T13:01:58;1.70;;;1.60;;
18669;SDS011;9464;44.918;9.670;2023-02-26T13:07:45;1.07;;;0.87;;
18669;SDS011;9464;44.918;9.670;2023-02-26T13:10:23;1.83;;;0.83;;
18669;SDS011;9464;44.918;9.670;2023-02-26T13:13:01;1.33;;;1.03;;
18669;SDS011;9464;44.918;9.670;2023-02-26T13:15:48;1.37;;;0.97;;
18669;SDS011;9464;44.918;9.670;2023-02-26T13:18:26;39.67;;;19.87;;
18669;SDS011;9464;44.918;9.670;2023-02-26T13:21:02;1.70;;;1.60;;
18669;SDS011;9464;44.918;9.670;2023-02-26T13:23:34;0.97;;;0.93;;
18669;SDS011;9464;44.918;9.670;2023-02-26T13:26:09;3.13;;;1.00;;
18669;SDS011;9464;44.918;9.670;2023-02-26T13:28:39;2.47;;;1.20;;
18669;SDS011;9464;44.918;9.670;2023-02-26T13:31:12;1.43;;;1.20;;
18669;SDS011;9464;44.918;9.670;2023-02-26T13:33:43;5.60;;;1.23;;
18669;SDS011;9464;44.918;9.670;2023-02-26T13:36:15;1.20;;;1.10;;
18669;SDS011;9464;44.918;9.670;2023-02-26T13:38:46;3.20;;;1.13;;
18669;SDS011;9464;44.918;9.670;2023-02-26T13:41:26;1.10;;;1.07;;
18669;SDS011;9464;44.918;9.670;2023-02-26T13:44:07;2.30;;;1.40;;
18669;SDS011;9464;44.918;9.670;2023-02-26T13:46:47;1.43;;;1.10;;
18669;SDS011;9464;44.918;9.670;2023-02-26T13:49:25;2.30;;;1.77;;
18669;SDS011;9464;44.918;9.670;2023-02-26T13:52:02;3.13;;;2.10;;
18669;SDS011;9464;44.918;9.670;2023-02-26T13:54:34;3.93;;;1.50;;
18669;SDS011;9464;44.918;9.670;2023-02-26T13:57:25;2.93;;;2.13;;
18669;SDS011;9464;44.918;9.670;2023-02-26T14:00:07;17.63;;;9.40;;
18669;SDS011;9464;44.918;9.670;2023-02-26T14:02:52;15.20;;;8.83;;
18669;SDS011;9464;44.918;9.670;2023-02-26T14:05:49;6.47;;;4.27;;
18669;SDS011;9464;44.918;9.670;2023-02-26T14:11:25;41.73;;;25.07;;
18669;SDS011;9464;44.918;9.670;2023-02-26T14:14:15;3.90;;;2.80;;
18669;SDS011;9464;44.918;9.670;2023-02-26T14:16:52;11.33;;;7.07;;
18669;SDS011;9464;44.918;9.670;2023-02-26T14:19:26;4.57;;;3.00;;
18669;SDS011;9464;44.918;9.670;2023-02-26T14:21:56;2.67;;;1.90;;
18669;SDS011;9464;44.918;9.670;2023-02-26T14:24:29;1.63;;;1.40;;
18669;SDS011;9464;44.918;9.670;2023-02-26T14:27:07;25.47;;;13.13;;
18669;SDS011;9464;44.918;9.670;2023-02-26T14:29:58;2.40;;;2.10;;
18669;SDS011;9464;44.918;9.670;2023-02-26T14:32:30;2.47;;;1.10;;
18669;SDS011;9464;44.918;9.670;2023-02-26T14:35:02;1.70;;;1.50;;
18669;SDS011;9464;44.918;9.670;2023-02-26T14:37:33;2.17;;;1.40;;
18669;SDS011;9464;44.918;9.670;2023-02-26T14:40:09;1.90;;;1.40;;
18669;SDS011;9464;44.918;9.670;2023-02-26T14:42:42;3.10;;;2.00;;
18669;SDS011;9464;44.918;9.670;2023-02-26T14:48:03;4.43;;;1.77;;
18669;SDS011;9464;44.918;9.670;2023-02-26T14:50:35;2.23;;;1.80;;
18669;SDS011;9464;44.918;9.670;2023-02-26T14:53:20;5.73;;;1.93;;
18669;SDS011;9464;44.918;9.670;2023-02-26T14:56:10;1.57;;;1.40;;
18669;SDS011;9464;44.918;9.670;2023-02-26T15:01:44;6.30;;;1.70;;
18669;SDS011;9464;44.918;9.670;2023-02-26T15:04:22;4.10;;;1.90;;
18669;SDS011;9464;44.918;9.670;2023-02-26T15:07:22;1.50;;;1.40;;
18669;SDS011;9464;44.918;9.670;2023-02-26T15:10:12;6.80;;;4.47;;
18669;SDS011;9464;44.918;9.670;2023-02-26T15:12:51;3.60;;;2.63;;
18669;SDS011;9464;44.918;9.670;2023-02-26T15:15:36;2.07;;;1.83;;
18669;SDS011;9464;44.918;9.670;2023-02-26T15:18:17;4.03;;;1.80;;
18669;SDS011;9464;44.918;9.670;2023-02-26T15:20:59;8.43;;;4.50;;
18669;SDS011;9464;44.918;9.670;2023-02-26T15:23:37;2.80;;;2.30;;
18669;SDS011;9464;44.918;9.670;2023-02-26T15:26:07;6.67;;;2.00;;
18669;SDS011;9464;44.918;9.670;2023-02-26T15:28:43;4.27;;;1.70;;
18669;SDS011;9464;44.918;9.670;2023-02-26T15:31:12;2.10;;;1.80;;
18669;SDS011;9464;44.918;9.670;2023-02-26T15:33:42;3.13;;;2.33;;
18669;SDS011;9464;44.918;9.670;2023-02-26T15:36:11;7.30;;;2.50;;
18669;SDS011;9464;44.918;9.670;2023-02-26T15:38:45;4.13;;;2.10;;
18669;SDS011;9464;44.918;9.670;2023-02-26T15:41:14;3.23;;;2.43;;
18669;SDS011;9464;44.918;9.670;2023-02-26T15:43:45;4.60;;;3.00;;
18669;SDS011;9464;44.918;9.670;2023-02-26T15:46:16;4.33;;;3.43;;